Time;durP1;ratioP1;P1;durP2;ratioP2;P2;SDS_P1;SDS_P2;PMS_P1;PMS_P2;Temp;Humidity;BMP_temperature;BMP_pressure;BME280_temperature;BME280_humidity;BME280_pressure;Samples;Min_cycle;Max_cycle;Signal;HPM_P1;HPM_P2
2023/10/15 00:01:56;;;;;;;6.13;1.60;;;;;;;5.41;100.00;101584.31;4844334;29;20132;-87
2023/10/15 00:04:22;;;;;;;7.65;2.38;;;;;;;5.37;100.00;101585.41;4837788;29;20048;-90
2023/10/15 00:06:49;;;;;;;5.53;1.75;;;;;;;5.38;100.00;101580.09;4821582;29;20038;-88
2023/10/15 00:09:14;;;;;;;6.70;1.50;;;;;;;5.40;100.00;101583.44;4822083;29;20106;-88
2023/10/15 00:11:40;;;;;;;3.40;1.42;;;;;;;5.41;100.00;101576.44;4852715;29;20033;-87
2023/10/15 00:14:06;;;;;;;7.07;1.55;;;;;;;5.42;100.00;101583.38;4868775;29;20037;-88
2023/10/15 00:16:33;;;;;;;9.73;1.50;;;;;;;5.47;100.00;101589.22;4855808;29;20033;-88
2023/10/15 00:19:09;;;;;;;6.28;1.67;;;;;;;5.43;100.00;101582.44;4824665;29;20508;-88
2023/10/15 00:21:36;;;;;;;4.97;2.03;;;;;;;5.40;100.00;101578.19;4837877;29;20034;-88
2023/10/15 00:24:05;;;;;;;7.88;1.98;;;;;;;5.44;100.00;101574.50;4835096;29;20056;-88
2023/10/15 00:26:31;;;;;;;11.02;2.05;;;;;;;5.41;100.00;101571.19;4855473;29;20045;-87
2023/10/15 00:28:57;;;;;;;4.43;1.15;;;;;;;5.42;100.00;101570.25;4850640;29;20041;-88
2023/10/15 00:31:29;;;;;;;3.95;1.30;;;;;;;5.53;100.00;101585.41;4873114;29;20044;-88
2023/10/15 00:33:55;;;;;;;9.52;2.13;;;;;;;5.46;100.00;101590.16;4856883;29;20052;-87
2023/10/15 00:36:23;;;;;;;13.75;1.67;;;;;;;5.44;100.00;101581.50;4829653;29;20049;-88
2023/10/15 00:38:48;;;;;;;2.53;1.00;;;;;;;5.41;100.00;101579.06;4852444;29;20049;-95
2023/10/15 00:41:14;;;;;;;9.65;1.50;;;;;;;5.36;100.00;101581.94;4863578;29;20040;-95
2023/10/15 00:43:58;;;;;;;9.65;1.85;;;;;;;5.39;100.00;101586.16;4860160;29;20097;-88
2023/10/15 00:46:27;;;;;;;7.35;1.73;;;;;;;5.29;100.00;101581.41;4828091;29;20045;-87
2023/10/15 00:49:02;;;;;;;5.53;1.50;;;;;;;5.24;100.00;101585.19;4858682;29;20508;-87
2023/10/15 00:51:28;;;;;;;4.47;1.88;;;;;;;5.28;100.00;101591.97;4839348;29;20509;-88
2023/10/15 00:53:58;;;;;;;4.38;1.20;;;;;;;5.28;100.00;101592.81;4840864;29;20037;-88
2023/10/15 00:56:26;;;;;;;3.10;1.42;;;;;;;5.31;100.00;101602.28;4848988;29;20045;-87
2023/10/15 01:03:52;;;;;;;3.85;1.05;;;;;;;5.30;100.00;101601.44;4845512;29;20049;-89
2023/10/15 01:06:29;;;;;;;6.38;1.60;;;;;;;5.30;100.00;101601.44;4841417;29;20405;-89
2023/10/15 01:09:01;;;;;;;3.78;1.33;;;;;;;5.35;100.00;101611.72;4859849;29;20037;-88
2023/10/15 01:11:30;;;;;;;5.68;1.20;;;;;;;5.32;100.00;101599.59;4827161;29;20197;-89
2023/10/15 01:13:55;;;;;;;4.75;1.33;;;;;;;5.37;100.00;101609.00;4838340;29;20033;-89
2023/10/15 01:16:22;;;;;;;9.98;1.30;;;;;;;5.38;100.00;101618.56;4828491;29;20071;-89
2023/10/15 01:19:07;;;;;;;7.25;1.52;;;;;;;5.37;100.00;101609.00;4834799;29;20065;-89
2023/10/15 01:21:43;;;;;;;4.50;1.38;;;;;;;5.33;100.00;101596.06;4835484;29;20032;-88
2023/10/15 01:24:08;;;;;;;6.95;2.25;;;;;;;5.24;100.00;101604.38;4846170;29;20045;-88
2023/10/15 01:26:38;;;;;;;5.00;2.72;;;;;;;5.22;100.00;101601.84;4843677;29;20208;-88
2023/10/15 01:29:08;;;;;;;6.75;1.92;;;;;;;5.24;100.00;101606.19;4828326;29;20041;-88
2023/10/15 01:31:50;;;;;;;4.53;1.92;;;;;;;5.15;100.00;101589.13;4837983;29;20041;-88
2023/10/15 01:34:21;;;;;;;6.03;2.10;;;;;;;5.16;100.00;101596.91;4853740;29;20506;-88
2023/10/15 01:36:51;;;;;;;7.65;1.90;;;;;;;5.11;100.00;101591.09;4840842;29;20095;-88
2023/10/15 01:39:32;;;;;;;5.88;1.83;;;;;;;4.96;100.00;101593.56;4844523;29;20138;-89
2023/10/15 01:42:04;;;;;;;6.13;1.90;;;;;;;4.93;100.00;101600.75;4833505;29;20402;-88
2023/10/15 01:44:32;;;;;;;9.52;2.22;;;;;;;4.92;100.00;101599.06;4843221;29;20454;-88
2023/10/15 01:49:31;;;;;;;13.80;2.00;;;;;;;4.80;100.00;101595.28;4847890;29;20049;-88
2023/10/15 01:52:09;;;;;;;6.68;1.90;;;;;;;4.65;100.00;101591.66;4824446;29;20055;-89
2023/10/15 01:54:36;;;;;;;3.47;1.92;;;;;;;4.45;100.00;101601.34;4818906;29;20037;-89
2023/10/15 01:57:06;;;;;;;7.70;1.85;;;;;;;4.36;100.00;101604.41;4851998;29;20123;-88
2023/10/15 01:59:43;;;;;;;2.72;1.50;;;;;;;4.36;100.00;101610.53;4841199;29;20041;-88
2023/10/15 02:02:15;;;;;;;5.03;1.58;;;;;;;4.42;100.00;101601.50;4827368;29;20049;-88
2023/10/15 02:04:44;;;;;;;7.20;1.67;;;;;;;4.46;100.00;101595.19;4841582;29;20127;-89
2023/10/15 02:07:15;;;;;;;6.25;1.70;;;;;;;4.42;100.00;101596.25;4858945;29;20083;-88
2023/10/15 02:09:44;;;;;;;3.78;1.38;;;;;;;4.34;100.00;101600.13;4821329;29;20037;-89
2023/10/15 02:12:17;;;;;;;6.22;1.52;;;;;;;4.37;100.00;101603.50;4825607;29;20358;-89
2023/10/15 02:14:45;;;;;;;3.50;1.60;;;;;;;4.51;100.00;101613.31;4829527;29;20033;-89
2023/10/15 02:17:23;;;;;;;4.10;1.33;;;;;;;4.59;100.00;101612.00;4845970;29;20033;-89
2023/10/15 02:19:55;;;;;;;3.80;1.20;;;;;;;4.61;100.00;101590.09;4872600;29;20036;-88
2023/10/15 02:22:21;;;;;;;5.75;1.35;;;;;;;4.62;100.00;101591.81;4852115;29;20823;-89
2023/10/15 02:24:47;;;;;;;5.07;1.30;;;;;;;4.66;100.00;101596.84;4850283;29;20033;-86
2023/10/15 02:27:17;;;;;;;8.68;1.65;;;;;;;4.72;100.00;101609.63;4844590;29;20036;-89
2023/10/15 02:29:49;;;;;;;5.30;1.40;;;;;;;4.69;100.00;101607.16;4839381;29;20618;-87
2023/10/15 02:32:42;;;;;;;5.63;2.03;;;;;;;4.65;100.00;101600.34;4863444;29;20037;-88
2023/10/15 02:35:12;;;;;;;6.28;1.48;;;;;;;4.55;100.00;101596.50;4859778;29;20041;-89
2023/10/15 02:37:41;;;;;;;9.60;1.77;;;;;;;4.53;100.00;101598.34;4857825;29;20030;-88
2023/10/15 02:40:20;;;;;;;4.82;1.65;;;;;;;4.40;100.00;101608.56;4858114;29;20044;-87
2023/10/15 02:42:52;;;;;;;8.68;2.25;;;;;;;4.32;100.00;101608.94;4858739;29;20033;-88
2023/10/15 02:45:21;;;;;;;7.72;1.55;;;;;;;4.26;100.00;101597.03;4844968;29;20060;-94
2023/10/15 02:47:54;;;;;;;8.93;1.60;;;;;;;4.22;100.00;101605.94;4863269;29;20037;-94
2023/10/15 02:50:26;;;;;;;5.43;1.73;;;;;;;4.27;100.00;101614.41;4876539;29;20029;-94
2023/10/15 02:52:54;;;;;;;4.18;1.80;;;;;;;4.18;100.00;101615.72;4837488;29;20047;-94
2023/10/15 02:55:26;;;;;;;5.13;1.83;;;;;;;4.20;100.00;101618.25;4853118;29;20033;-87
2023/10/15 02:57:52;;;;;;;6.28;2.00;;;;;;;4.22;100.00;101612.00;4861774;29;20377;-88
2023/10/15 03:00:18;;;;;;;7.78;1.50;;;;;;;4.22;100.00;101621.66;4835471;29;20029;-93
2023/10/15 03:02:45;;;;;;;5.63;1.55;;;;;;;4.18;100.00;101620.09;4838869;29;20045;-94
2023/10/15 03:05:18;;;;;;;7.63;2.03;;;;;;;4.13;100.00;101627.31;4830961;29;20033;-88
2023/10/15 03:07:44;;;;;;;3.85;1.70;;;;;;;4.12;100.00;101617.75;4831108;29;21171;-88
2023/10/15 03:10:21;;;;;;;4.75;1.63;;;;;;;4.13;100.00;101612.47;4853924;29;20066;-87
2023/10/15 03:12:48;;;;;;;7.63;1.42;;;;;;;4.15;100.00;101609.78;4836219;29;20059;-88
2023/10/15 03:15:14;;;;;;;5.00;1.30;;;;;;;4.15;100.00;101615.84;4857819;29;20045;-95
2023/10/15 03:17:42;;;;;;;7.38;1.88;;;;;;;4.12;100.00;101610.78;4857204;29;20033;-94
2023/10/15 03:22:47;;;;;;;3.65;1.65;;;;;;;4.18;100.00;101622.72;4841177;29;20044;-88
2023/10/15 03:25:16;;;;;;;6.30;1.20;;;;;;;4.16;100.00;101621.91;4846959;29;20045;-88
2023/10/15 03:27:46;;;;;;;6.45;1.75;;;;;;;4.15;100.00;101620.25;4830094;29;20051;-88
2023/10/15 03:30:13;;;;;;;3.28;1.42;;;;;;;4.11;100.00;101624.75;4865032;29;20044;-88
2023/10/15 03:32:46;;;;;;;8.15;1.60;;;;;;;4.09;100.00;101621.38;4830967;29;20438;-88
2023/10/15 03:35:33;;;;;;;4.57;1.83;;;;;;;4.11;100.00;101623.94;4854031;29;20033;-89
2023/10/15 03:38:23;;;;;;;10.90;1.50;;;;;;;4.13;100.00;101627.31;4847480;29;20041;-89
2023/10/15 03:40:50;;;;;;;4.80;1.48;;;;;;;4.19;100.00;101616.53;4848034;29;20041;-93
2023/10/15 03:43:20;;;;;;;6.15;1.40;;;;;;;4.16;100.00;101614.06;4845501;29;20068;-94
2023/10/15 03:45:51;;;;;;;6.60;2.55;;;;;;;4.08;100.00;101614.44;4843076;29;20072;-89
2023/10/15 03:48:27;;;;;;;8.07;3.28;;;;;;;3.99;100.00;101618.34;4861144;29;20108;-88
2023/10/15 03:50:53;;;;;;;3.88;2.03;;;;;;;3.93;100.00;101621.25;4857442;29;20029;-89
2023/10/15 03:53:21;;;;;;;5.35;1.92;;;;;;;3.95;100.00;101619.44;4860343;29;20049;-90
2023/10/15 03:55:51;;;;;;;5.53;2.30;;;;;;;3.91;100.00;101623.94;4859444;29;20466;-94
2023/10/15 03:58:18;;;;;;;5.25;1.52;;;;;;;3.82;100.00;101614.75;4875398;29;20048;-93
2023/10/15 04:00:47;;;;;;;6.47;1.77;;;;;;;3.77;100.00;101610.66;4875001;29;20104;-89
2023/10/15 04:03:25;;;;;;;5.47;1.48;;;;;;;3.74;100.00;101616.88;4827608;29;20051;-89
2023/10/15 04:06:05;;;;;;;4.18;1.90;;;;;;;3.80;100.00;101627.06;4860717;29;20038;-90
2023/10/15 04:08:31;;;;;;;4.00;1.73;;;;;;;3.78;100.00;101628.88;4838839;29;20068;-91
2023/10/15 04:11:00;;;;;;;6.57;2.47;;;;;;;3.74;100.00;101627.34;4867044;29;20073;-90
2023/10/15 04:13:27;;;;;;;10.52;1.80;;;;;;;3.56;100.00;101629.88;4846338;29;20097;-90
2023/10/15 04:15:56;;;;;;;7.32;1.88;;;;;;;3.57;100.00;101633.31;4842572;29;20037;-90
2023/10/15 04:18:23;;;;;;;5.50;1.70;;;;;;;3.58;100.00;101632.41;4844626;29;20447;-91
2023/10/15 04:20:53;;;;;;;5.05;2.08;;;;;;;3.63;100.00;101647.91;4854287;29;20037;-90
2023/10/15 04:23:31;;;;;;;8.02;2.50;;;;;;;3.48;100.00;101645.03;4844740;29;20055;-90
2023/10/15 04:26:11;;;;;;;5.88;2.33;;;;;;;3.44;100.00;101648.72;4857536;29;20053;-90
2023/10/15 04:28:38;;;;;;;6.45;1.83;;;;;;;3.38;100.00;101643.78;4840614;29;20068;-90
2023/10/15 04:31:21;;;;;;;7.55;1.83;;;;;;;3.43;100.00;101644.38;4830174;29;20131;-90
2023/10/15 04:33:50;;;;;;;4.78;1.50;;;;;;;3.41;100.00;101651.47;4864470;24;20054;-90
2023/10/15 04:36:16;;;;;;;8.13;1.70;;;;;;;3.40;100.00;101649.75;4833976;29;20376;-91
2023/10/15 04:38:42;;;;;;;4.50;1.92;;;;;;;3.39;100.00;101653.28;4847806;29;21299;-91
2023/10/15 04:41:10;;;;;;;5.00;2.00;;;;;;;3.43;100.00;101650.47;4856842;29;20033;-91
2023/10/15 04:43:45;;;;;;;5.53;1.52;;;;;;;3.47;100.00;101653.81;4845988;29;20037;-90
2023/10/15 04:46:17;;;;;;;6.00;1.75;;;;;;;3.48;100.00;101650.28;4846217;29;20053;-90
2023/10/15 04:48:50;;;;;;;5.40;1.67;;;;;;;3.47;100.00;101640.75;4825938;29;20560;-91
2023/10/15 04:51:16;;;;;;;3.17;1.42;;;;;;;3.33;100.00;101636.97;4856256;29;20037;-90
2023/10/15 04:53:49;;;;;;;4.00;1.38;;;;;;;3.34;100.00;101643.88;4857788;29;20249;-90
2023/10/15 04:56:16;;;;;;;5.72;1.23;;;;;;;3.35;100.00;101648.19;4832476;29;20065;-90
2023/10/15 04:58:42;;;;;;;3.42;1.55;;;;;;;3.32;100.00;101642.25;4835140;29;20067;-91
2023/10/15 05:01:08;;;;;;;29.88;26.92;;;;;;;3.26;100.00;101642.53;4856121;29;20037;-90
2023/10/15 05:03:36;;;;;;;4.03;1.60;;;;;;;3.14;100.00;101642.13;4825587;29;20141;-91
2023/10/15 05:06:04;;;;;;;10.30;2.13;;;;;;;3.09;100.00;101646.72;4836215;29;20041;-91
2023/10/15 05:08:30;;;;;;;2.95;1.95;;;;;;;3.14;100.00;101643.91;4843021;29;20038;-91
2023/10/15 05:10:56;;;;;;;6.40;1.58;;;;;;;3.15;100.00;101637.75;4857742;29;20036;-91
2023/10/15 05:13:24;;;;;;;1.65;1.05;;;;;;;3.17;100.00;101633.34;4842822;29;20037;-90
2023/10/15 05:15:51;;;;;;;3.95;1.77;;;;;;;3.22;100.00;101636.56;4843245;29;20052;-91
2023/10/15 05:18:20;;;;;;;3.92;1.35;;;;;;;3.26;100.00;101635.53;4842750;29;20048;-86
2023/10/15 05:20:47;;;;;;;3.75;1.45;;;;;;;3.25;100.00;101636.44;4825076;29;20513;-91
2023/10/15 05:23:14;;;;;;;6.28;1.70;;;;;;;3.23;100.00;101626.06;4832953;29;20041;-91
2023/10/15 05:25:39;;;;;;;4.30;1.63;;;;;;;3.14;100.00;101623.84;4850268;29;20038;-90
2023/10/15 05:28:06;;;;;;;4.30;1.40;;;;;;;3.00;100.00;101627.06;4840638;29;20533;-90
2023/10/15 05:30:32;;;;;;;3.05;1.20;;;;;;;2.83;100.00;101641.69;4842617;29;20033;-91
2023/10/15 05:33:01;;;;;;;5.78;1.60;;;;;;;2.81;100.00;101632.19;4839031;29;20062;-91
2023/10/15 05:35:27;;;;;;;5.47;2.30;;;;;;;2.85;100.00;101620.72;4840755;29;20533;-91
2023/10/15 05:37:54;;;;;;;4.45;2.08;;;;;;;2.73;100.00;101620.31;4845401;29;20041;-91
2023/10/15 05:40:23;;;;;;;3.03;1.40;;;;;;;2.62;100.00;101622.53;4830423;29;20068;-91
2023/10/15 05:42:49;;;;;;;4.88;1.77;;;;;;;2.66;100.00;101631.91;4828431;29;20068;-91
2023/10/15 05:45:18;;;;;;;2.88;1.40;;;;;;;2.70;100.00;101620.47;4836643;29;20137;-94
2023/10/15 05:47:44;;;;;;;6.15;1.90;;;;;;;2.64;100.00;101625.06;4844796;29;20501;-94
2023/10/15 05:50:12;;;;;;;7.05;1.95;;;;;;;2.56;100.00;101626.25;4831383;29;20063;-91
2023/10/15 05:52:39;;;;;;;5.78;1.48;;;;;;;2.57;100.00;101627.06;4861598;29;20048;-90
2023/10/15 05:55:05;;;;;;;3.15;1.80;;;;;;;2.59;100.00;101620.91;4846255;29;20041;-91
2023/10/15 05:57:31;;;;;;;6.68;1.70;;;;;;;2.60;100.00;101613.91;4851931;29;20065;-91
2023/10/15 05:59:57;;;;;;;5.45;1.73;;;;;;;2.60;100.00;101619.13;4844365;29;20068;-92
2023/10/15 06:02:23;;;;;;;6.05;1.65;;;;;;;2.64;100.00;101615.50;4853585;29;20033;-90
2023/10/15 06:04:49;;;;;;;3.13;1.20;;;;;;;2.67;100.00;101610.16;4829176;29;20033;-90
2023/10/15 06:07:17;;;;;;;4.00;2.00;;;;;;;2.73;100.00;101617.72;4845274;29;20101;-90
2023/10/15 06:09:44;;;;;;;3.75;1.33;;;;;;;2.78;100.00;101608.84;4826447;29;20045;-91
2023/10/15 06:12:10;;;;;;;7.38;1.83;;;;;;;2.84;100.00;101612.03;4870851;29;20061;-90
2023/10/15 06:14:36;;;;;;;3.85;1.70;;;;;;;2.89;100.00;101610.97;4825848;29;20042;-91
2023/10/15 06:17:02;;;;;;;2.25;1.55;;;;;;;2.91;100.00;101614.38;4827208;29;20096;-91
2023/10/15 06:19:30;;;;;;;3.72;1.50;;;;;;;2.93;100.00;101604.75;4856349;29;20041;-91
2023/10/15 06:21:56;;;;;;;3.28;1.60;;;;;;;2.93;100.00;101607.34;4843596;29;20097;-91
2023/10/15 06:24:23;;;;;;;4.15;1.30;;;;;;;2.94;100.00;101607.28;4862373;29;20033;-91
2023/10/15 06:26:50;;;;;;;4.60;1.30;;;;;;;2.98;100.00;101614.06;4828235;29;20098;-91
2023/10/15 06:29:16;;;;;;;2.92;1.20;;;;;;;3.00;100.00;101611.38;4875650;29;20100;-91
2023/10/15 06:31:41;;;;;;;5.07;1.77;;;;;;;2.93;100.00;101608.19;4845878;29;20482;-92
2023/10/15 06:34:07;;;;;;;3.97;1.40;;;;;;;2.97;100.00;101621.97;4841153;29;20054;-92
2023/10/15 06:36:33;;;;;;;6.45;1.38;;;;;;;3.01;100.00;101628.75;4843824;29;20062;-91
2023/10/15 06:39:00;;;;;;;5.18;1.50;;;;;;;3.01;100.00;101626.13;4813466;29;20048;-90
2023/10/15 06:41:29;;;;;;;2.72;1.45;;;;;;;3.00;100.00;101629.66;4827090;29;20505;-92
2023/10/15 06:43:54;;;;;;;2.95;1.30;;;;;;;2.96;100.00;101631.56;4859902;29;20049;-90
2023/10/15 06:46:23;;;;;;;4.93;1.63;;;;;;;2.93;100.00;101639.50;4848818;29;20048;-90
2023/10/15 06:48:48;;;;;;;5.85;1.30;;;;;;;2.89;100.00;101643.19;4859875;29;20046;-91
2023/10/15 06:51:17;;;;;;;2.35;1.20;;;;;;;2.87;100.00;101639.78;4843361;29;20048;-91
2023/10/15 06:53:43;;;;;;;4.55;0.93;;;;;;;2.82;100.00;101634.75;4842322;29;20496;-91
2023/10/15 06:56:09;;;;;;;3.45;1.27;;;;;;;2.78;100.00;101642.78;4876613;29;20046;-91
2023/10/15 06:58:35;;;;;;;5.65;1.30;;;;;;;2.70;100.00;101638.72;4829179;29;20037;-91
2023/10/15 07:01:07;;;;;;;7.57;1.33;;;;;;;2.66;100.00;101628.47;4834779;29;20110;-92
2023/10/15 07:03:33;;;;;;;2.47;1.10;;;;;;;2.68;100.00;101624.03;4874658;29;20130;-91
2023/10/15 07:05:59;;;;;;;6.13;1.13;;;;;;;2.66;100.00;101628.47;4830754;29;20702;-91
2023/10/15 07:08:25;;;;;;;5.22;2.03;;;;;;;2.69;100.00;101644.00;4826907;29;20037;-90
2023/10/15 07:10:50;;;;;;;2.92;1.40;;;;;;;2.74;100.00;101644.66;4835973;29;20505;-91
2023/10/15 07:13:18;;;;;;;2.60;1.10;;;;;;;2.70;100.00;101637.88;4833494;29;20045;-92
2023/10/15 07:15:45;;;;;;;4.50;1.35;;;;;;;2.59;100.00;101660.06;4840503;29;20482;-91
2023/10/15 07:18:12;;;;;;;3.45;1.20;;;;;;;2.56;100.00;101649.75;4850234;29;20045;-92
2023/10/15 07:20:39;;;;;;;4.68;1.30;;;;;;;2.64;100.00;101653.78;4861672;29;20101;-91
2023/10/15 07:23:04;;;;;;;3.58;1.33;;;;;;;2.71;100.00;101663.06;4832357;29;20033;-91
2023/10/15 07:25:32;;;;;;;4.22;1.42;;;;;;;2.82;100.00;101657.41;4861510;29;20048;-92
2023/10/15 07:27:59;;;;;;;4.05;1.30;;;;;;;2.87;100.00;101672.91;4845116;29;20166;-92
2023/10/15 07:30:25;;;;;;;9.45;1.42;;;;;;;2.91;100.00;101672.72;4859270;29;20037;-91
2023/10/15 07:32:58;;;;;;;3.33;1.30;;;;;;;2.95;100.00;101671.66;4834532;29;20057;-92
2023/10/15 07:35:29;;;;;;;4.78;1.75;;;;;;;2.96;100.00;101664.69;4842215;29;20034;-90
2023/10/15 07:37:56;;;;;;;5.20;1.52;;;;;;;2.93;100.00;101668.25;4857036;29;20045;-91
2023/10/15 07:40:23;;;;;;;3.67;1.65;;;;;;;2.98;100.00;101679.34;4825247;29;20816;-91
2023/10/15 07:42:51;;;;;;;5.15;1.60;;;;;;;3.06;100.00;101670.34;4841500;29;20394;-91
2023/10/15 07:45:18;;;;;;;2.25;1.45;;;;;;;3.04;100.00;101667.78;4826812;29;20037;-92
2023/10/15 07:47:44;;;;;;;3.45;1.52;;;;;;;3.08;100.00;101676.34;4823737;29;20041;-92
2023/10/15 07:50:21;;;;;;;5.78;1.45;;;;;;;3.17;100.00;101682.97;4840174;29;20048;-92
2023/10/15 07:52:47;;;;;;;3.42;1.92;;;;;;;3.16;100.00;101670.81;4827738;29;20137;-92
2023/10/15 07:55:13;;;;;;;4.57;1.75;;;;;;;3.13;100.00;101673.56;4849454;29;20041;-92
2023/10/15 07:57:39;;;;;;;3.83;1.60;;;;;;;3.19;100.00;101683.75;4849176;29;20037;-92
2023/10/15 08:00:15;;;;;;;5.65;1.90;;;;;;;3.25;100.00;101677.41;4824587;29;20854;-91
2023/10/15 08:02:48;;;;;;;4.20;1.70;;;;;;;3.29;100.00;101673.75;4840733;29;20116;-92
2023/10/15 08:05:15;;;;;;;4.15;1.55;;;;;;;3.32;100.00;101673.63;4829080;29;20133;-92
2023/10/15 08:07:43;;;;;;;5.45;1.02;;;;;;;3.42;100.00;101676.69;4840160;29;20102;-92
2023/10/15 08:10:10;;;;;;;3.67;1.52;;;;;;;3.41;100.00;101675.81;4851649;29;20065;-90
2023/10/15 08:12:36;;;;;;;1.90;1.02;;;;;;;3.40;100.00;101676.75;4842593;29;20115;-90
2023/10/15 08:15:02;;;;;;;2.38;1.33;;;;;;;3.47;100.00;101690.41;4844968;29;20060;-92
2023/10/15 08:17:31;;;;;;;4.80;1.10;;;;;;;3.49;100.00;101672.88;4840739;29;20045;-92
2023/10/15 08:19:56;;;;;;;7.22;1.40;;;;;;;3.43;100.00;101665.31;4821267;29;20948;-91
2023/10/15 08:22:22;;;;;;;5.22;2.65;;;;;;;3.37;100.00;101682.13;4832187;29;20503;-91
2023/10/15 08:24:48;;;;;;;4.00;1.70;;;;;;;3.53;100.00;101691.91;4836591;29;20042;-91
2023/10/15 08:27:14;;;;;;;3.03;1.30;;;;;;;3.66;100.00;101684.38;4823090;29;20081;-90
2023/10/15 08:29:44;;;;;;;3.25;1.17;;;;;;;3.77;100.00;101674.28;4833016;29;20061;-91
2023/10/15 08:32:18;;;;;;;1.58;1.05;;;;;;;3.85;100.00;101682.59;4831457;29;20033;-91
2023/10/15 08:34:48;;;;;;;4.15;1.38;;;;;;;3.92;100.00;101677.09;4841044;29;20445;-90
2023/10/15 08:37:14;;;;;;;4.47;1.42;;;;;;;3.89;100.00;101679.84;4825318;29;20034;-89
2023/10/15 08:39:40;;;;;;;6.75;1.70;;;;;;;3.84;100.00;101680.06;4806821;29;20056;-91
2023/10/15 08:42:13;;;;;;;3.88;1.60;;;;;;;3.89;100.00;101672.00;4819617;29;20034;-91
2023/10/15 08:44:41;;;;;;;6.32;1.80;;;;;;;3.79;100.00;101666.38;4825225;29;20030;-91
2023/10/15 08:47:09;;;;;;;7.05;1.95;;;;;;;3.67;100.00;101686.06;4828609;29;20048;-90
2023/10/15 08:49:39;;;;;;;3.67;1.58;;;;;;;3.78;100.00;101696.88;4847215;29;20046;-90
2023/10/15 08:52:06;;;;;;;4.90;1.77;;;;;;;3.87;100.00;101694.78;4805844;29;20026;-89
2023/10/15 08:54:38;;;;;;;6.82;1.50;;;;;;;3.90;100.00;101679.78;4817066;29;20154;-89
2023/10/15 08:57:08;;;;;;;4.80;2.20;;;;;;;3.98;100.00;101689.91;4837691;29;20441;-89
2023/10/15 08:59:36;;;;;;;9.65;1.88;;;;;;;4.05;100.00;101695.69;4805286;29;20052;-87
2023/10/15 09:02:05;;;;;;;5.75;1.95;;;;;;;4.09;100.00;101695.47;4792786;29;20501;-89
2023/10/15 09:04:32;;;;;;;8.90;2.30;;;;;;;4.15;100.00;101680.44;4832727;29;20038;-89
2023/10/15 09:07:02;;;;;;;5.53;1.92;;;;;;;4.26;100.00;101690.38;4823210;29;20395;-88
2023/10/15 09:09:32;;;;;;;4.75;1.92;;;;;;;4.38;100.00;101688.97;4802085;29;20046;-90
2023/10/15 09:11:59;;;;;;;2.85;1.30;;;;;;;4.50;100.00;101688.38;4837812;29;20502;-89
2023/10/15 09:14:43;;;;;;;4.97;1.60;;;;;;;4.70;100.00;101674.31;4811183;29;20409;-89
2023/10/15 09:17:14;;;;;;;4.10;1.52;;;;;;;4.81;100.00;101676.41;4830270;29;20125;-90
2023/10/15 09:19:42;;;;;;;11.00;2.00;;;;;;;4.92;100.00;101683.72;4805666;29;20089;-89
2023/10/15 09:22:15;;;;;;;3.95;1.60;;;;;;;5.08;100.00;101685.59;4801609;29;20050;-89
2023/10/15 09:24:42;;;;;;;6.10;1.63;;;;;;;5.22;100.00;101682.28;4815436;29;20133;-90
2023/10/15 09:27:08;;;;;;;4.45;1.67;;;;;;;5.32;100.00;101683.47;4825484;29;20538;-89
2023/10/15 09:29:34;;;;;;;5.93;1.70;;;;;;;5.46;100.00;101682.75;4828232;29;21089;-89
2023/10/15 09:32:02;;;;;;;3.65;1.75;;;;;;;5.59;100.00;101685.59;4825385;29;20118;-89
2023/10/15 09:34:29;;;;;;;7.88;1.90;;;;;;;5.74;100.00;101701.47;4836526;29;20054;-89
2023/10/15 09:36:58;;;;;;;9.15;2.35;;;;;;;5.80;100.00;101700.28;4822463;29;21295;-89
2023/10/15 09:39:28;;;;;;;3.80;1.50;;;;;;;5.87;100.00;101680.66;4865993;29;20129;-88
2023/10/15 09:41:57;;;;;;;6.70;2.33;;;;;;;5.93;100.00;101687.34;4849792;29;20045;-89
2023/10/15 09:44:24;;;;;;;6.03;1.85;;;;;;;6.01;100.00;101695.66;4838014;29;20041;-88
2023/10/15 09:46:50;;;;;;;7.07;1.60;;;;;;;6.11;100.00;101695.19;4840873;29;20038;-89
2023/10/15 09:49:18;;;;;;;7.32;1.73;;;;;;;6.26;100.00;101689.09;4822226;29;20033;-90
2023/10/15 09:51:47;;;;;;;6.43;1.85;;;;;;;6.38;100.00;101689.34;4812367;29;20045;-89
2023/10/15 09:54:14;;;;;;;8.13;1.75;;;;;;;6.52;100.00;101684.16;4839305;29;20046;-88
2023/10/15 09:56:45;;;;;;;4.82;1.98;;;;;;;6.65;100.00;101692.19;4840441;29;20049;-88
2023/10/15 09:59:11;;;;;;;8.02;1.67;;;;;;;6.75;100.00;101696.91;4850871;29;20586;-88
2023/10/15 10:01:44;;;;;;;5.15;1.45;;;;;;;6.85;100.00;101684.09;4840282;29;20046;-89
2023/10/15 10:04:42;;;;;;;5.32;1.70;;;;;;;6.93;100.00;101689.75;4831459;29;20037;-88
2023/10/15 10:07:38;;;;;;;5.63;1.63;;;;;;;7.04;100.00;101697.84;4833814;29;20030;-89
2023/10/15 10:10:04;;;;;;;4.20;1.73;;;;;;;7.06;100.00;101689.88;4850194;29;20049;-88
2023/10/15 10:12:57;;;;;;;6.10;1.20;;;;;;;7.24;100.00;101689.72;4826017;29;20058;-87
2023/10/15 10:15:38;;;;;;;3.55;1.65;;;;;;;7.28;100.00;101680.69;4853299;29;20448;-89
2023/10/15 10:18:05;;;;;;;4.90;1.42;;;;;;;7.27;100.00;101698.28;4834670;29;20470;-88
2023/10/15 10:20:32;;;;;;;6.57;1.10;;;;;;;7.39;100.00;101698.50;4851265;29;20427;-88
2023/10/15 10:23:00;;;;;;;6.40;1.35;;;;;;;7.44;100.00;101694.63;4819476;29;20483;-89
2023/10/15 10:25:37;;;;;;;8.05;1.10;;;;;;;7.55;100.00;101701.00;4820094;29;20040;-88
2023/10/15 10:28:17;;;;;;;6.50;1.42;;;;;;;7.62;100.00;101701.50;4809099;29;20061;-76
2023/10/15 10:30:59;;;;;;;3.78;1.10;;;;;;;7.64;100.00;101695.22;4849035;29;20037;-88
2023/10/15 10:33:48;;;;;;;7.63;1.30;;;;;;;7.68;100.00;101691.44;4842558;29;20045;-88
2023/10/15 10:36:29;;;;;;;4.97;1.63;;;;;;;7.71;100.00;101687.78;4834589;29;20467;-88
2023/10/15 10:39:08;;;;;;;6.45;1.00;;;;;;;7.82;100.00;101680.06;4854156;29;20113;-89
2023/10/15 10:41:36;;;;;;;6.00;1.90;;;;;;;7.87;100.00;101681.59;4829015;29;20380;-88
2023/10/15 10:44:06;;;;;;;5.10;1.35;;;;;;;7.96;100.00;101677.50;4815828;29;20053;-87
2023/10/15 10:46:40;;;;;;;8.77;1.95;;;;;;;8.06;100.00;101682.09;4845214;29;20049;-89
2023/10/15 10:49:13;;;;;;;9.52;1.45;;;;;;;8.18;100.00;101682.25;4846586;29;20123;-88
2023/10/15 10:51:40;;;;;;;7.05;1.60;;;;;;;8.24;100.00;101676.59;4812668;29;20057;-89
2023/10/15 10:54:06;;;;;;;11.30;2.00;;;;;;;8.26;100.00;101671.25;4839430;29;20129;-89
2023/10/15 10:56:40;;;;;;;3.90;1.50;;;;;;;8.37;100.00;101683.72;4827952;29;20029;-89
2023/10/15 10:59:14;;;;;;;6.82;1.83;;;;;;;8.46;100.00;101680.47;4823287;29;20559;-88
2023/10/15 11:01:42;;;;;;;4.97;1.48;;;;;;;8.41;100.00;101679.94;4810305;29;20435;-87
2023/10/15 11:04:15;;;;;;;4.65;1.55;;;;;;;8.44;100.00;101683.22;4822695;29;20042;-88
2023/10/15 11:06:42;;;;;;;5.65;1.55;;;;;;;8.43;100.00;101686.81;4838512;29;20067;-89
2023/10/15 11:09:15;;;;;;;4.10;1.00;;;;;;;8.58;100.00;101678.88;4853412;29;20033;-89
2023/10/15 11:11:46;;;;;;;9.73;1.00;;;;;;;8.70;100.00;101674.56;4821271;29;20032;-89
2023/10/15 11:14:12;;;;;;;5.57;1.30;;;;;;;8.73;100.00;101666.47;4848365;29;20029;-89
2023/10/15 11:16:42;;;;;;;4.63;0.80;;;;;;;8.84;100.00;101670.19;4826113;29;20112;-88
2023/10/15 11:19:21;;;;;;;4.47;0.85;;;;;;;8.97;100.00;101678.97;4838312;29;20113;-90
2023/10/15 11:21:51;;;;;;;2.50;0.60;;;;;;;8.96;100.00;101672.00;4839223;29;20030;-89
2023/10/15 11:24:18;;;;;;;9.57;1.50;;;;;;;9.05;100.00;101667.88;4818998;29;20042;-88
2023/10/15 11:26:45;;;;;;;2.72;1.02;;;;;;;9.15;100.00;101661.06;4824657;29;20049;-88
2023/10/15 11:29:24;;;;;;;6.10;1.35;;;;;;;9.25;100.00;101658.59;4856371;29;20052;-88
2023/10/15 11:31:56;;;;;;;8.30;1.58;;;;;;;9.30;100.00;101664.41;4853025;29;20035;-89
2023/10/15 11:34:24;;;;;;;3.80;0.60;;;;;;;9.37;100.00;101666.63;4852857;29;20103;-89
2023/10/15 11:36:57;;;;;;;9.60;0.95;;;;;;;9.48;100.00;101660.59;4845511;29;20049;-88
2023/10/15 11:39:25;;;;;;;5.88;1.05;;;;;;;9.48;100.00;101658.81;4837128;29;20042;-88
2023/10/15 11:41:52;;;;;;;6.18;1.50;;;;;;;9.53;100.00;101658.50;4805422;29;20057;-87
2023/10/15 11:44:26;;;;;;;5.82;0.52;;;;;;;9.61;100.00;101652.69;4824662;29;20033;-89
2023/10/15 11:46:55;;;;;;;7.35;0.60;;;;;;;9.65;100.00;101654.16;4837181;29;20049;-88